Meteo Giornale » Osservazioni meteo Stati Uniti (USA) » Kelly
ore: 15:55 - Osservazioni Meteo Kelly
Lat. 29° 23' N Lon. 98° 35' W Alt. 210 metri s.l.m.
37 °C
Sereno
Temp. 24 Ore
26 °C
37 °C
Est/Sud-Est
9.3 Km/h
Dew point 19 °C
Umidità 35 %
Visibilità 13 Km
Il sole sorge alle ore 07:11
Il sole tramonta alle ore 19:57
| Data e Ora | Cielo e Fenomeni | T °C | DP °C | Um. % | Pres. hPa | Vis. km | Vento km/h | |
|---|---|---|---|---|---|---|---|---|
| Oggi h: 15:55 | Sereno | 37 | 19 | 35 | 1012 | 13 | E/SE 9.3 | |
| Oggi h: 14:55 | Nuvoloso | 37 | 20 | 37 | 1013 | 10 | E 18.5 | |
| Oggi h: 13:56 | Nuvoloso | 35 | 20 | 41 | 1014 | 10 | N 11.1 | |
| Oggi h: 12:56 | Nuvoloso | 34 | 20 | 43 | 1015 | 10 | SE 18.5 | |
| Oggi h: 11:58 | Poco Nuvoloso | 33 | 20 | 46 | 1015 | 10 | SE 9.3 | |
| Oggi h: 10:55 | Nuvoloso | 31 | 22 | 58 | 1015 | 10 | S/SE 18.5 | |
| Oggi h: 09:55 | Molto Nuvoloso | 30 | 24 | 70 | 1015 | 13 | S/SE 11.1 | |
| Oggi h: 08:55 | Poco Nuvoloso | 28 | 24 | 78 | 1015 | 13 | E/SE 9.3 | |
| Oggi h: 08:11 | Poco Nuvoloso | 27 | 24 | 83 | 1014 | 13 | E/SE 9.3 | |
| Oggi h: 07:55 | Sereno | 27 | 24 | 83 | 1014 | 13 | E/SE 9.3 | |
| Oggi h: 07:25 | Nuvoloso | 26 | 24 | 88 | 1014 | 13 | SE 11.1 | |
| Oggi h: 06:55 | Coperto | 27 | 24 | 83 | 1014 | 10 | SE 7.4 | |
| Oggi h: 06:28 | Coperto | 26 | 24 | 88 | 1014 | 10 | N 0 | |
| Oggi h: 06:05 | Molto Nuvoloso | 26 | 24 | 88 | 1014 | 10 | N 0 | |
| Oggi h: 05:55 | Nuvoloso | 26 | 24 | 88 | 1014 | 10 | E/SE 7.4 | |
| Oggi h: 05:51 | Molto Nuvoloso | 26 | 24 | 88 | 1014 | 10 | N 5.5 | |
| Oggi h: 05:50 | Nuvoloso | 26 | 24 | 88 | 1014 | 10 | N 5.5 | |
| Oggi h: 05:40 | Molto Nuvoloso | 26 | 24 | 88 | 1014 | 10 | SE 9.3 | |
| Oggi h: 04:55 | Molto Nuvoloso | 27 | 24 | 83 | 1014 | 10 | N 5.5 | |
| Oggi h: 04:45 | Molto Nuvoloso | 27 | 24 | 83 | 1014 | 10 | SE 9.3 | |
| Oggi h: 04:20 | Nuvoloso | 27 | 24 | 83 | 1014 | 10 | SE 13 | |
| Oggi h: 03:55 | Coperto | 27 | 24 | 83 | 1014 | 10 | SE 11.1 | |
| Oggi h: 02:55 | Molto Nuvoloso | 27 | 24 | 83 | 1014 | 10 | S/SE 7.4 | |
| Oggi h: 02:10 | Molto Nuvoloso | 27 | 24 | 83 | 1014 | 10 | SE 13 | |
| Oggi h: 02:05 | Nuvoloso | 27 | 23 | 78 | 1014 | 10 | S/SE 11.1 | |
| Oggi h: 01:55 | Nuvoloso | 27 | 23 | 78 | 1014 | 10 | SE 13 | |
| Oggi h: 00:55 | Sereno | 28 | 23 | 74 | 1014 | 10 | SE 16.7 | |
| Ieri h: 23:55 | Sereno | 29 | 22 | 66 | 1014 | 10 | SE 22.2 | |
| Ieri h: 22:55 | Sereno | 30 | 21 | 58 | 1013 | 10 | E/SE 18.5 | |
| Ieri h: 21:55 | Sereno | 32 | 20 | 49 | 1012 | 10 | E/SE 22.2 | |
| Ieri h: 20:55 | Sereno | 33 | 21 | 49 | 1011 | 10 | E/SE 24 | |
| Ieri h: 20:25 | Nuvoloso | 34 | 21 | 46 | 1011 | 10 | E/SE 22.2 | |
| Ieri h: 19:55 | Molto Nuvoloso | 34 | 20 | 43 | 1011 | 10 | E/SE 27.8 | |
| Ieri h: 19:50 | Molto Nuvoloso | 35 | 20 | 41 | 1011 | 10 | SE 29.6 | |
| Ieri h: 18:55 | Sereno | 36 | 18 | 34 | 1010 | 10 | SE 22.2 | |
| Ieri h: 17:55 | Sereno | 36 | 18 | 34 | 1010 | 10 | E/SE 13 | |
| Ieri h: 16:55 | Sereno | 36 | 18 | 34 | 1011 | 10 | E/SE 13 | |



